createdAt,value
2023-04-15T00:02:58.386Z,12.12
2023-04-15T00:06:01.505Z,12.15
2023-04-15T00:09:03.892Z,12.18
2023-04-15T00:12:06.292Z,12.19
2023-04-15T00:15:09.381Z,12.18
2023-04-15T00:18:11.517Z,12.17
2023-04-15T00:21:13.733Z,12.19
2023-04-15T00:24:15.884Z,12.20
2023-04-15T00:27:18.101Z,12.23
2023-04-15T00:30:20.536Z,12.24
2023-04-15T00:33:22.762Z,12.20
2023-04-15T00:36:25.596Z,12.20
2023-04-15T00:39:28.147Z,12.25
2023-04-15T00:42:30.303Z,12.24
2023-04-15T00:45:33.393Z,12.28
2023-04-15T00:48:36.329Z,12.30
2023-04-15T00:51:38.541Z,12.35
2023-04-15T00:54:40.745Z,12.32
2023-04-15T00:57:43.071Z,12.23
2023-04-15T01:00:46.132Z,12.21
2023-04-15T01:03:50.463Z,12.21
2023-04-15T01:06:52.850Z,12.23
2023-04-15T01:09:55.654Z,12.29
2023-04-15T01:12:58.049Z,12.24
2023-04-15T01:16:03.039Z,12.32
2023-04-15T01:19:09.066Z,12.26
2023-04-15T01:22:11.360Z,12.12
2023-04-15T01:25:18.695Z,12.23
2023-04-15T01:28:21.339Z,12.31
2023-04-15T01:31:23.568Z,12.31
2023-04-15T01:34:25.813Z,12.19
2023-04-15T01:37:29.806Z,12.08
2023-04-15T01:40:32.411Z,12.10
2023-04-15T01:43:36.377Z,12.21
2023-04-15T01:46:38.648Z,12.29
2023-04-15T01:49:40.992Z,12.25
2023-04-15T01:52:43.387Z,12.18
2023-04-15T01:55:45.679Z,12.28
2023-04-15T01:58:50.124Z,12.27
2023-04-15T02:01:52.408Z,12.26
2023-04-15T02:04:55.656Z,12.30
2023-04-15T02:07:58.126Z,12.31
2023-04-15T02:11:01.214Z,12.33
2023-04-15T02:14:05.759Z,12.36
2023-04-15T02:17:08.426Z,12.32
2023-04-15T02:20:11.373Z,12.25
2023-04-15T02:23:13.707Z,12.21
2023-04-15T02:26:19.112Z,12.25
2023-04-15T02:29:21.355Z,12.31
2023-04-15T02:32:24.513Z,12.33
2023-04-15T02:35:27.027Z,12.31
2023-04-15T02:38:29.637Z,12.37
2023-04-15T02:41:31.875Z,12.40
2023-04-15T02:44:36.431Z,12.28
2023-04-15T02:47:41.550Z,12.27
2023-04-15T02:50:43.906Z,12.25
2023-04-15T02:53:49.455Z,12.29
2023-04-15T02:56:55.296Z,12.33
2023-04-15T02:59:57.812Z,12.35
2023-04-15T03:03:03.425Z,12.40
2023-04-15T03:06:06.105Z,12.43
2023-04-15T03:09:08.313Z,12.46
2023-04-15T03:12:11.761Z,12.47
2023-04-15T03:15:14.003Z,12.46
2023-04-15T03:18:20.104Z,12.45
2023-04-15T03:21:22.213Z,12.47
2023-04-15T03:24:24.972Z,12.42
2023-04-15T03:27:27.452Z,12.42
2023-04-15T03:30:33.246Z,12.43
2023-04-15T03:33:35.414Z,12.47
2023-04-15T03:36:37.631Z,12.42
2023-04-15T03:39:39.803Z,12.40
2023-04-15T03:42:41.988Z,12.46
2023-04-15T03:45:44.130Z,12.45
2023-04-15T03:48:47.254Z,12.46
2023-04-15T03:51:49.448Z,12.48
2023-04-15T03:54:51.661Z,12.45
2023-04-15T03:57:53.807Z,12.42
2023-04-15T04:00:56.249Z,12.46
2023-04-15T04:03:58.836Z,12.51
2023-04-15T04:07:01.468Z,12.55
2023-04-15T04:10:03.884Z,12.54
2023-04-15T04:13:06.093Z,12.58
2023-04-15T04:16:08.494Z,12.63
2023-04-15T04:19:10.841Z,12.57
2023-04-15T04:22:14.201Z,12.53
2023-04-15T04:25:16.414Z,12.52
2023-04-15T04:28:18.533Z,12.53
2023-04-15T04:31:21.234Z,12.64
2023-04-15T04:34:23.437Z,12.69
2023-04-15T04:37:25.677Z,12.69
2023-04-15T04:40:27.816Z,12.67
2023-04-15T04:43:30.225Z,12.73
2023-04-15T04:46:32.435Z,12.73
2023-04-15T04:49:34.613Z,13.09
2023-04-15T04:52:36.801Z,13.33
2023-04-15T04:55:38.929Z,13.42
2023-04-15T04:58:41.636Z,13.40
2023-04-15T05:01:43.869Z,13.59
2023-04-15T05:04:46.059Z,13.70
2023-04-15T05:07:50.291Z,13.59
2023-04-15T05:10:52.439Z,13.45
2023-04-15T05:13:54.610Z,13.36
2023-04-15T05:16:56.892Z,13.30
2023-04-15T05:19:59.006Z,13.26
2023-04-15T05:23:01.183Z,13.25
2023-04-15T05:26:03.554Z,13.31
2023-04-15T05:29:05.737Z,13.32
2023-04-15T05:32:08.024Z,13.38
2023-04-15T05:35:10.141Z,13.50
2023-04-15T05:38:12.265Z,13.61
2023-04-15T05:41:17.172Z,13.62
2023-04-15T05:44:21.324Z,13.63
2023-04-15T05:47:23.905Z,13.65
2023-04-15T05:50:26.328Z,13.71
2023-04-15T05:53:28.526Z,13.75
2023-04-15T05:56:30.714Z,13.80
2023-04-15T05:59:32.979Z,13.82
2023-04-15T06:02:35.303Z,13.88
2023-04-15T06:05:37.700Z,13.90
2023-04-15T06:08:39.909Z,13.86
2023-04-15T06:11:42.138Z,13.91
2023-04-15T06:14:44.291Z,13.95
2023-04-15T06:17:46.480Z,13.92
2023-04-15T06:20:48.765Z,14.01
2023-04-15T06:23:51.030Z,13.98
2023-04-15T06:26:53.145Z,13.99
2023-04-15T06:29:55.313Z,14.04
2023-04-15T06:32:57.562Z,14.05
2023-04-15T06:35:59.817Z,14.07
2023-04-15T06:39:02.840Z,14.09
2023-04-15T06:42:05.282Z,14.17
2023-04-15T06:45:08.696Z,14.24
2023-04-15T06:48:10.899Z,14.32
2023-04-15T06:51:13.089Z,14.30
2023-04-15T06:54:15.370Z,14.33
2023-04-15T06:57:17.535Z,14.40
2023-04-15T07:00:20.261Z,14.38
2023-04-15T07:03:22.510Z,14.41
2023-04-15T07:06:24.708Z,14.47
2023-04-15T07:09:26.880Z,14.60
2023-04-15T07:12:29.072Z,14.73
2023-04-15T07:15:31.351Z,14.83
2023-04-15T07:18:33.510Z,14.94
2023-04-15T07:21:35.757Z,15.07
2023-04-15T07:24:37.972Z,15.12
2023-04-15T07:27:40.284Z,15.18
2023-04-15T07:30:42.596Z,15.23
2023-04-15T07:33:45.562Z,15.20
2023-04-15T07:36:51.905Z,15.23
2023-04-15T07:39:54.583Z,15.30
2023-04-15T07:42:58.330Z,15.35
2023-04-15T07:46:00.669Z,15.36
2023-04-15T07:49:03.059Z,15.34
2023-04-15T07:52:05.929Z,15.30
2023-04-15T07:55:11.573Z,15.31
2023-04-15T07:58:13.784Z,15.31
2023-04-15T08:01:16.524Z,15.42
2023-04-15T08:04:18.758Z,15.48
2023-04-15T08:07:21.459Z,15.58
2023-04-15T08:10:23.695Z,15.62
2023-04-15T08:13:26.456Z,15.62
2023-04-15T08:16:28.750Z,15.62
2023-04-15T08:19:31.171Z,15.63
2023-04-15T08:22:33.415Z,15.71
2023-04-15T08:25:35.621Z,15.85
2023-04-15T08:28:38.883Z,15.97
2023-04-15T08:31:41.164Z,16.02
2023-04-15T08:34:43.372Z,16.13
2023-04-15T08:37:45.545Z,16.33
2023-04-15T08:40:47.663Z,16.35
2023-04-15T08:44:05.764Z,16.39
2023-04-15T08:47:08.853Z,16.30
2023-04-15T08:50:11.772Z,16.26
2023-04-15T08:53:14.844Z,16.19
2023-04-15T08:56:17.211Z,16.17
2023-04-15T08:59:21.827Z,16.10
2023-04-15T09:02:25.915Z,16.16
2023-04-15T09:05:28.136Z,16.05
2023-04-15T09:08:30.351Z,16.07
2023-04-15T09:11:32.573Z,16.08
2023-04-15T09:14:35.093Z,16.00
2023-04-15T09:17:43.128Z,16.05
2023-04-15T09:20:45.270Z,16.14
2023-04-15T09:24:01.660Z,16.22
2023-04-15T09:27:04.420Z,16.21
2023-04-15T09:30:09.016Z,16.25
2023-04-15T09:33:14.610Z,16.33
2023-04-15T09:36:16.866Z,16.41
2023-04-15T09:39:19.004Z,16.45
2023-04-15T09:42:24.278Z,16.43
2023-04-15T09:45:37.039Z,16.38
2023-04-15T09:48:50.901Z,16.38
2023-04-15T09:52:05.711Z,16.36
2023-04-15T09:55:08.945Z,16.34
2023-04-15T09:58:18.480Z,16.27
2023-04-15T10:01:20.729Z,16.28
2023-04-15T10:04:24.278Z,16.38
2023-04-15T10:07:27.220Z,16.43
2023-04-15T10:10:29.525Z,16.47
2023-04-15T10:13:37.109Z,16.54
2023-04-15T10:16:40.454Z,16.52
2023-04-15T10:19:42.904Z,16.50
2023-04-15T10:22:45.477Z,16.46
2023-04-15T10:25:49.293Z,16.40
2023-04-15T10:29:00.170Z,16.33
2023-04-15T10:32:03.225Z,16.37
2023-04-15T10:35:06.315Z,16.30
2023-04-15T10:38:45.434Z,16.38
2023-04-15T10:42:14.410Z,16.36
2023-04-15T10:45:17.893Z,16.34
2023-04-15T10:48:20.067Z,16.33
2023-04-15T10:51:34.424Z,16.35
2023-04-15T10:54:38.962Z,16.31
2023-04-15T10:57:42.518Z,16.30
2023-04-15T11:00:51.178Z,16.31
2023-04-15T11:03:55.689Z,16.24
2023-04-15T11:07:07.448Z,16.17
2023-04-15T11:10:18.696Z,16.11
2023-04-15T11:13:25.400Z,15.98
2023-04-15T11:16:29.805Z,15.85
2023-04-15T11:19:38.986Z,15.73
2023-04-15T11:22:50.553Z,15.78
2023-04-15T11:25:55.226Z,15.81
2023-04-15T11:29:00.050Z,15.80
2023-04-15T11:32:06.914Z,15.82
2023-04-15T11:35:09.304Z,15.92
2023-04-15T11:38:13.769Z,15.95
2023-04-15T11:41:20.990Z,16.00
2023-04-15T11:44:23.183Z,16.03
2023-04-15T11:47:25.473Z,16.09
2023-04-15T11:50:27.731Z,16.13
2023-04-15T11:53:39.277Z,16.22
2023-04-15T11:56:41.575Z,16.23
2023-04-15T11:59:45.725Z,16.26
2023-04-15T12:02:48.765Z,16.24
2023-04-15T12:06:07.212Z,16.29
2023-04-15T12:09:11.094Z,16.26
2023-04-15T12:12:13.297Z,16.27
2023-04-15T12:15:15.714Z,16.27
2023-04-15T12:18:19.320Z,16.38
2023-04-15T12:21:26.531Z,16.45
2023-04-15T12:24:33.261Z,16.48
2023-04-15T12:27:36.214Z,16.59
2023-04-15T12:30:51.600Z,16.66
2023-04-15T12:33:58.757Z,16.60
2023-04-15T12:37:02.415Z,16.53
2023-04-15T12:40:08.596Z,16.44
2023-04-15T12:43:10.935Z,16.36
2023-04-15T12:46:16.215Z,16.34
2023-04-15T12:49:20.912Z,16.31
2023-04-15T12:52:24.461Z,16.36
2023-04-15T12:55:26.669Z,16.33
2023-04-15T12:58:28.871Z,16.34
2023-04-15T13:01:31.215Z,16.31
2023-04-15T13:04:35.364Z,16.31
2023-04-15T13:07:37.670Z,16.27
2023-04-15T13:10:39.847Z,16.28
2023-04-15T13:13:42.084Z,16.31
2023-04-15T13:16:44.323Z,16.30
2023-04-15T13:19:46.454Z,16.20
2023-04-15T13:22:48.633Z,16.18
2023-04-15T13:25:50.785Z,16.17
2023-04-15T13:28:53.102Z,16.18
2023-04-15T13:31:56.707Z,16.19
2023-04-15T13:35:02.188Z,16.26
2023-04-15T13:38:04.329Z,16.26
2023-04-15T13:41:06.512Z,16.29
2023-04-15T13:44:08.643Z,16.29
2023-04-15T13:47:11.073Z,16.26
2023-04-15T13:50:13.341Z,16.27
2023-04-15T13:53:15.561Z,16.21
2023-04-15T13:56:17.703Z,16.18
2023-04-15T13:59:19.888Z,16.15
2023-04-15T14:02:23.449Z,16.11
2023-04-15T14:05:25.708Z,16.04
2023-04-15T14:08:27.877Z,16.07
2023-04-15T14:11:30.111Z,16.06
2023-04-15T14:14:32.452Z,16.19
2023-04-15T14:17:34.714Z,16.18
2023-04-15T14:20:36.854Z,16.21
2023-04-15T14:23:40.005Z,16.21
2023-04-15T14:26:43.961Z,16.22
2023-04-15T14:29:46.097Z,16.22
2023-04-15T14:32:48.273Z,16.16
2023-04-15T14:35:51.503Z,16.08
2023-04-15T14:38:53.656Z,16.02
2023-04-15T14:41:56.588Z,15.97
2023-04-15T14:44:58.806Z,15.94
2023-04-15T14:48:01.557Z,15.96
2023-04-15T14:51:04.028Z,15.96
2023-04-15T14:54:06.296Z,15.96
2023-04-15T14:57:09.151Z,15.98
2023-04-15T15:00:13.692Z,16.03
2023-04-15T15:03:18.686Z,16.01
2023-04-15T15:06:22.243Z,16.05
2023-04-15T15:09:25.059Z,16.07
2023-04-15T15:12:27.226Z,16.09
2023-04-15T15:15:29.489Z,16.13
2023-04-15T15:18:31.789Z,16.12
2023-04-15T15:21:34.326Z,16.08
2023-04-15T15:24:36.466Z,16.06
2023-04-15T15:27:38.602Z,15.99
2023-04-15T15:30:41.011Z,15.93
2023-04-15T15:33:43.346Z,15.92
2023-04-15T15:36:45.512Z,15.90
2023-04-15T15:39:49.060Z,15.90
2023-04-15T15:42:51.261Z,15.87
2023-04-15T15:45:55.454Z,15.78
2023-04-15T15:48:58.232Z,15.75
2023-04-15T15:52:00.756Z,15.76
2023-04-15T15:55:03.170Z,15.75
2023-04-15T15:58:05.677Z,15.69
2023-04-15T16:01:07.846Z,15.68
2023-04-15T16:04:10.414Z,15.55
2023-04-15T16:07:13.167Z,15.54
2023-04-15T16:10:16.023Z,15.54
2023-04-15T16:13:18.261Z,15.50
2023-04-15T16:16:20.567Z,15.52
2023-04-15T16:19:22.764Z,15.45
2023-04-15T16:22:26.430Z,15.44
2023-04-15T16:25:28.589Z,15.42
2023-04-15T16:28:30.778Z,15.41
2023-04-15T16:31:33.089Z,15.37
2023-04-15T16:34:35.774Z,15.37
2023-04-15T16:37:37.917Z,15.37
2023-04-15T16:40:40.065Z,15.40
2023-04-15T16:43:42.370Z,15.32
2023-04-15T16:46:44.544Z,15.27
2023-04-15T16:49:46.711Z,15.27
2023-04-15T16:52:48.886Z,15.28
2023-04-15T16:55:51.130Z,15.29
2023-04-15T16:58:53.377Z,15.28
2023-04-15T17:01:55.912Z,15.24
2023-04-15T17:04:58.182Z,15.19
2023-04-15T17:08:00.387Z,15.19
2023-04-15T17:11:02.557Z,15.15
2023-04-15T17:14:04.764Z,15.04
2023-04-15T17:17:06.979Z,15.09
2023-04-15T17:20:09.707Z,14.99
2023-04-15T17:23:11.823Z,14.98
2023-04-15T17:26:14.068Z,14.93
2023-04-15T17:29:16.230Z,14.95
2023-04-15T17:32:18.469Z,14.91
2023-04-15T17:35:20.899Z,14.88
2023-04-15T17:38:23.030Z,14.79
2023-04-15T17:41:25.330Z,14.81
2023-04-15T17:44:27.535Z,14.73
2023-04-15T17:47:29.738Z,14.74
2023-04-15T17:50:31.931Z,14.73
2023-04-15T17:53:34.117Z,14.64
2023-04-15T17:56:36.527Z,14.64
2023-04-15T17:59:38.729Z,14.61
2023-04-15T18:02:44.000Z,14.54
2023-04-15T18:05:46.353Z,14.53
2023-04-15T18:08:48.851Z,14.48
2023-04-15T18:11:51.220Z,14.48
2023-04-15T18:14:53.389Z,14.47
2023-04-15T18:17:55.743Z,14.43
2023-04-15T18:20:57.934Z,14.42
2023-04-15T18:24:00.252Z,14.37
2023-04-15T18:27:02.421Z,14.38
2023-04-15T18:30:07.164Z,14.32
2023-04-15T18:33:09.386Z,14.33
2023-04-15T18:36:11.601Z,14.33
2023-04-15T18:39:13.755Z,14.38
2023-04-15T18:42:15.940Z,14.34
2023-04-15T18:45:18.423Z,14.27
2023-04-15T18:48:21.061Z,14.24
2023-04-15T18:51:23.239Z,14.23
2023-04-15T18:54:28.445Z,14.23
2023-04-15T18:57:34.888Z,14.22
2023-04-15T19:00:41.841Z,14.22
2023-04-15T19:03:44.208Z,14.18
2023-04-15T19:06:49.518Z,14.14
2023-04-15T19:09:51.767Z,14.11
2023-04-15T19:12:54.771Z,14.14
2023-04-15T19:15:57.091Z,14.15
2023-04-15T19:18:59.262Z,14.16
2023-04-15T19:22:03.265Z,14.17
2023-04-15T19:25:06.003Z,14.15
2023-04-15T19:28:09.761Z,14.10
2023-04-15T19:31:11.976Z,14.04
2023-04-15T19:34:14.616Z,14.01
2023-04-15T19:37:17.246Z,14.02
2023-04-15T19:40:19.462Z,14.01
2023-04-15T19:43:21.567Z,13.98
2023-04-15T19:46:24.074Z,13.96
2023-04-15T19:49:26.900Z,13.97
2023-04-15T19:52:29.247Z,13.96
2023-04-15T19:55:31.705Z,14.01
2023-04-15T19:58:33.961Z,13.96
2023-04-15T20:01:36.520Z,13.93
2023-04-15T20:04:38.885Z,13.95
2023-04-15T20:07:42.739Z,13.88
2023-04-15T20:10:44.991Z,13.86
2023-04-15T20:13:47.233Z,13.89
2023-04-15T20:16:49.665Z,13.89
2023-04-15T20:19:51.852Z,13.89
2023-04-15T20:22:54.027Z,13.90
2023-04-15T20:25:56.676Z,13.87
2023-04-15T20:28:59.286Z,13.80
2023-04-15T20:32:01.720Z,13.77
2023-04-15T20:35:05.119Z,13.76
2023-04-15T20:38:07.332Z,13.74
2023-04-15T20:41:09.483Z,13.76
2023-04-15T20:44:11.680Z,13.73
2023-04-15T20:47:13.871Z,13.71
2023-04-15T20:50:16.110Z,13.71
2023-04-15T20:53:18.293Z,13.71
2023-04-15T20:56:20.472Z,13.71
2023-04-15T20:59:22.766Z,13.74
2023-04-15T21:02:25.060Z,13.72
2023-04-15T21:05:27.433Z,13.72
2023-04-15T21:08:30.425Z,13.70
2023-04-15T21:11:53.222Z,13.72
2023-04-15T21:14:54.918Z,13.71
2023-04-15T21:17:57.064Z,13.69
2023-04-15T21:21:00.537Z,13.67
2023-04-15T21:24:02.766Z,13.68
2023-04-15T21:27:04.989Z,13.66
2023-04-15T21:30:07.686Z,13.64
2023-04-15T21:33:09.788Z,13.60
2023-04-15T21:36:11.908Z,13.56
2023-04-15T21:39:14.115Z,13.56
2023-04-15T21:42:16.466Z,13.53
2023-04-15T21:45:18.741Z,13.58
2023-04-15T21:48:21.118Z,13.57
2023-04-15T21:51:23.316Z,13.54
2023-04-15T21:54:25.564Z,13.49
2023-04-15T21:57:27.712Z,13.50
2023-04-15T22:00:30.163Z,13.48
2023-04-15T22:03:34.417Z,13.49
2023-04-15T22:06:36.896Z,13.44
2023-04-15T22:09:39.146Z,13.40
2023-04-15T22:12:44.220Z,13.39
2023-04-15T22:15:46.353Z,13.45
2023-04-15T22:18:48.633Z,13.40
2023-04-15T22:21:51.505Z,13.41
2023-04-15T22:24:53.587Z,13.45
2023-04-15T22:27:55.747Z,13.44
2023-04-15T22:30:58.966Z,13.44
2023-04-15T22:34:01.246Z,13.43
2023-04-15T22:37:03.379Z,13.45
2023-04-15T22:40:06.237Z,13.46
2023-04-15T22:43:08.578Z,13.60
2023-04-15T22:46:10.998Z,13.63
2023-04-15T22:49:13.150Z,13.58
2023-04-15T22:52:29.368Z,13.55
2023-04-15T22:55:32.613Z,13.66
2023-04-15T22:58:34.836Z,13.61
2023-04-15T23:01:38.264Z,13.61
2023-04-15T23:04:40.751Z,13.56
2023-04-15T23:07:43.092Z,13.58
2023-04-15T23:10:45.669Z,13.56
2023-04-15T23:13:47.870Z,13.59
2023-04-15T23:16:50.059Z,13.55
2023-04-15T23:19:52.249Z,13.53
2023-04-15T23:22:54.392Z,13.51
2023-04-15T23:25:56.503Z,13.49
2023-04-15T23:28:58.666Z,13.50
2023-04-15T23:32:01.015Z,13.48
2023-04-15T23:35:03.445Z,13.47
2023-04-15T23:38:05.679Z,13.48
2023-04-15T23:41:09.172Z,13.49
2023-04-15T23:44:11.499Z,13.48
2023-04-15T23:47:13.612Z,13.49
2023-04-15T23:50:15.814Z,13.47
2023-04-15T23:53:18.100Z,13.45
2023-04-15T23:56:20.948Z,13.43
2023-04-15T23:59:23.111Z,13.39
